Verdon, Minnesota
Current Conditions -  °F | °C
As of 8:14 AM on Sunday 25 Jan 2015 (Local Time) from KAIT Reporting Station
Overcast Overcast  
Wind Chill: 15°   Ceiling: 11000
Heat Index: 21°   Visibility: 10mi
Dew Point: 14°   Wind: 5mph
Humidity: 74%   Direction: 50°NE
Pressure: 29.97"   Gusts: NA
Location:  46.7281°N, 93.6101°W
Report Text: KAIT 251414Z AUTO 05004KT 10SM SCT019 OVC110 M06/M10 A2997 RMK AO2
Loading
Personal Weather Stations






























Interactive Weather Map New forecast layout! Learn more

10-Day Weather Forecast

Advertisements
Track Severe Weather on mobile